Time;durP1;ratioP1;P1;durP2;ratioP2;P2;SDS_P1;SDS_P2;PMS_P1;PMS_P2;Temp;Humidity;BMP_temperature;BMP_pressure;BME280_temperature;BME280_humidity;BME280_pressure;Samples;Min_cycle;Max_cycle;Signal;HPM_P1;HPM_P2
2021/06/26 00:02:15;;;;;;;15.02;8.85;;;;;;;;;;10331115;28;20054;-84
2021/06/26 00:07:16;;;;;;;9.60;8.55;;;;;;;;;;10330891;28;20046;-84
2021/06/26 00:12:18;;;;;;;15.60;9.82;;;;;;;;;;10340822;28;20754;-84
2021/06/26 00:17:20;;;;;;;12.55;8.20;;;;;;;;;;10330565;28;20205;-84
2021/06/26 00:22:21;;;;;;;13.73;8.77;;;;;;;;;;10330107;28;20054;-83
2021/06/26 00:27:23;;;;;;;12.85;8.65;;;;;;;;;;10321830;28;20108;-84
2021/06/26 00:32:24;;;;;;;10.45;8.30;;;;;;;;;;10289365;28;20074;-84
2021/06/26 00:37:26;;;;;;;13.95;8.57;;;;;;;;;;10298323;28;20104;-84
2021/06/26 00:42:31;;;;;;;12.85;8.18;;;;;;;;;;10328339;28;20117;-84
2021/06/26 00:47:33;;;;;;;10.35;8.00;;;;;;;;;;10328724;28;20140;-84
2021/06/26 00:52:34;;;;;;;11.73;8.95;;;;;;;;;;10327963;28;20052;-83
2021/06/26 00:57:36;;;;;;;11.48;8.50;;;;;;;;;;10328570;28;20125;-83
2021/06/26 01:02:38;;;;;;;11.85;9.20;;;;;;;;;;10328715;28;20054;-83
2021/06/26 01:07:40;;;;;;;14.32;8.80;;;;;;;;;;10327731;28;20089;-83
2021/06/26 01:12:41;;;;;;;13.23;7.93;;;;;;;;;;10327480;28;20554;-83
2021/06/26 01:17:43;;;;;;;12.43;10.13;;;;;;;;;;10326174;28;20056;-83
2021/06/26 01:22:47;;;;;;;14.80;9.20;;;;;;;;;;10326922;28;20054;-83
2021/06/26 01:27:48;;;;;;;15.68;9.45;;;;;;;;;;10327338;28;20754;-83
2021/06/26 01:32:50;;;;;;;12.98;8.88;;;;;;;;;;10325427;28;20453;-83
2021/06/26 01:37:52;;;;;;;10.48;8.20;;;;;;;;;;10326583;28;20185;-83
2021/06/26 01:42:54;;;;;;;13.80;8.60;;;;;;;;;;10326759;28;20159;-83
2021/06/26 01:47:57;;;;;;;10.77;8.48;;;;;;;;;;10326194;28;20574;-83
2021/06/26 01:53:00;;;;;;;13.55;8.27;;;;;;;;;;10326730;28;20128;-83
2021/06/26 01:58:01;;;;;;;10.80;8.20;;;;;;;;;;10326587;28;20109;-83
2021/06/26 02:03:03;;;;;;;10.40;8.20;;;;;;;;;;10328304;28;20090;-83
2021/06/26 02:08:05;;;;;;;10.40;7.60;;;;;;;;;;10332097;28;20069;-84
2021/06/26 02:13:06;;;;;;;9.55;7.57;;;;;;;;;;10305965;28;20109;-84
2021/06/26 02:18:08;;;;;;;10.38;7.32;;;;;;;;;;10292313;28;20105;-84
2021/06/26 02:23:09;;;;;;;12.20;7.85;;;;;;;;;;10323546;28;20078;-84
2021/06/26 02:28:11;;;;;;;12.45;7.35;;;;;;;;;;10331304;28;20050;-84
2021/06/26 02:33:13;;;;;;;17.98;9.38;;;;;;;;;;10330853;28;20050;-84
2021/06/26 02:38:14;;;;;;;11.25;7.38;;;;;;;;;;10335219;28;20077;-84
2021/06/26 02:43:18;;;;;;;14.18;7.63;;;;;;;;;;10338715;28;20365;-84
2021/06/26 02:48:20;;;;;;;10.35;7.40;;;;;;;;;;10346894;28;20054;-84
2021/06/26 02:53:22;;;;;;;11.15;7.90;;;;;;;;;;10338256;28;20081;-84
2021/06/26 02:58:24;;;;;;;10.13;6.63;;;;;;;;;;10338444;28;20412;-84
2021/06/26 03:03:25;;;;;;;8.90;7.00;;;;;;;;;;10324469;28;20110;-84
2021/06/26 03:08:27;;;;;;;11.85;7.93;;;;;;;;;;10315634;28;20109;-84
2021/06/26 03:13:28;;;;;;;12.10;7.70;;;;;;;;;;10332673;28;20082;-84
2021/06/26 03:18:30;;;;;;;11.95;9.38;;;;;;;;;;10332563;28;20059;-84
2021/06/26 03:23:31;;;;;;;11.82;7.00;;;;;;;;;;10331920;28;20510;-84
2021/06/26 03:28:33;;;;;;;11.50;6.10;;;;;;;;;;10332364;28;20109;-84
2021/06/26 03:33:35;;;;;;;10.95;6.95;;;;;;;;;;10330493;28;20547;-84
2021/06/26 03:38:36;;;;;;;7.85;6.00;;;;;;;;;;10331323;28;20140;-84
2021/06/26 03:43:40;;;;;;;12.80;6.32;;;;;;;;;;10322419;28;20081;-84
2021/06/26 03:48:42;;;;;;;7.95;5.65;;;;;;;;;;10294023;28;20492;-83
2021/06/26 03:53:44;;;;;;;7.82;5.65;;;;;;;;;;10323074;28;20081;-84
2021/06/26 03:58:46;;;;;;;11.98;7.07;;;;;;;;;;10326612;28;20094;-84
2021/06/26 04:03:48;;;;;;;9.93;6.50;;;;;;;;;;10328106;28;20054;-84
2021/06/26 04:08:49;;;;;;;6.13;5.38;;;;;;;;;;10326154;28;20141;-84
2021/06/26 04:13:51;;;;;;;8.20;5.78;;;;;;;;;;10327319;28;20070;-84
2021/06/26 04:18:54;;;;;;;11.02;5.72;;;;;;;;;;10325660;28;20054;-83
2021/06/26 04:23:55;;;;;;;9.80;6.10;;;;;;;;;;10326780;28;20078;-84
2021/06/26 04:28:59;;;;;;;8.50;5.57;;;;;;;;;;10325564;28;20081;-83
2021/06/26 04:34:00;;;;;;;9.05;5.80;;;;;;;;;;10333117;28;20086;-83
2021/06/26 04:39:07;;;;;;;8.40;5.28;;;;;;;;;;10332548;28;20058;-83
2021/06/26 04:44:09;;;;;;;8.52;5.47;;;;;;;;;;10327918;28;20046;-84
2021/06/26 04:49:10;;;;;;;9.50;6.70;;;;;;;;;;10331362;28;20054;-84
2021/06/26 04:54:12;;;;;;;8.10;5.80;;;;;;;;;;10330033;28;20042;-84
2021/06/26 04:59:13;;;;;;;7.25;5.00;;;;;;;;;;10325400;28;20121;-84
2021/06/26 05:04:15;;;;;;;8.68;4.75;;;;;;;;;;10323141;28;20082;-84
2021/06/26 05:09:17;;;;;;;8.93;5.07;;;;;;;;;;10328708;28;20068;-85
2021/06/26 05:14:18;;;;;;;7.07;5.75;;;;;;;;;;10327664;28;20496;-85
2021/06/26 05:19:20;;;;;;;12.88;6.47;;;;;;;;;;10328893;28;20053;-85
2021/06/26 05:24:21;;;;;;;10.45;6.47;;;;;;;;;;10344254;28;20081;-85
2021/06/26 05:29:23;;;;;;;11.75;6.22;;;;;;;;;;10326712;28;20089;-85
2021/06/26 05:34:24;;;;;;;8.68;7.25;;;;;;;;;;10328314;28;20051;-85
2021/06/26 05:39:26;;;;;;;10.13;8.40;;;;;;;;;;10327582;28;20088;-85
2021/06/26 05:44:28;;;;;;;13.95;8.50;;;;;;;;;;10327003;28;20078;-85
2021/06/26 05:49:29;;;;;;;11.15;8.30;;;;;;;;;;10327840;28;20133;-85
2021/06/26 05:54:31;;;;;;;13.38;8.07;;;;;;;;;;10326574;28;20089;-85
2021/06/26 05:59:32;;;;;;;9.13;7.65;;;;;;;;;;10327606;28;20117;-85
2021/06/26 06:04:34;;;;;;;14.30;8.05;;;;;;;;;;10326794;28;20444;-85
2021/06/26 06:09:36;;;;;;;10.80;8.30;;;;;;;;;;10326999;28;20073;-85
2021/06/26 06:14:37;;;;;;;11.02;8.63;;;;;;;;;;10331655;28;20097;-85
2021/06/26 06:19:39;;;;;;;11.65;8.63;;;;;;;;;;10334042;28;20112;-85
2021/06/26 06:24:40;;;;;;;14.30;9.52;;;;;;;;;;10334603;28;20066;-85
2021/06/26 06:29:43;;;;;;;14.63;8.65;;;;;;;;;;10334710;28;20115;-85
2021/06/26 06:34:45;;;;;;;12.27;8.18;;;;;;;;;;10334452;28;20086;-85
2021/06/26 06:39:46;;;;;;;13.32;8.85;;;;;;;;;;10335543;28;20054;-85
2021/06/26 06:44:48;;;;;;;11.70;8.35;;;;;;;;;;10334162;28;20427;-86
2021/06/26 06:49:49;;;;;;;10.25;7.80;;;;;;;;;;10334387;28;20078;-85
2021/06/26 06:54:51;;;;;;;14.18;7.78;;;;;;;;;;10332448;28;20050;-86
2021/06/26 06:59:57;;;;;;;10.57;7.25;;;;;;;;;;10333242;28;20058;-85
2021/06/26 07:04:58;;;;;;;10.02;7.35;;;;;;;;;;10332439;28;20189;-85
2021/06/26 07:10:00;;;;;;;10.25;6.70;;;;;;;;;;10321216;28;20077;-84
2021/06/26 07:15:05;;;;;;;9.07;6.78;;;;;;;;;;10325479;28;20053;-85
2021/06/26 07:20:07;;;;;;;12.55;6.65;;;;;;;;;;10329715;28;20137;-83
2021/06/26 07:25:09;;;;;;;11.40;6.65;;;;;;;;;;10319769;28;20468;-83
2021/06/26 07:30:11;;;;;;;9.13;6.13;;;;;;;;;;10329079;28;20081;-83
2021/06/26 07:35:14;;;;;;;11.77;5.90;;;;;;;;;;10327744;28;20078;-84
2021/06/26 07:40:18;;;;;;;8.93;5.68;;;;;;;;;;10327421;28;20128;-85
2021/06/26 07:45:20;;;;;;;9.40;5.00;;;;;;;;;;10328398;28;20057;-85
2021/06/26 07:50:23;;;;;;;7.20;4.95;;;;;;;;;;10310087;28;20476;-85
2021/06/26 07:55:25;;;;;;;6.72;5.00;;;;;;;;;;10326474;28;20050;-84
2021/06/26 08:00:26;;;;;;;9.48;5.63;;;;;;;;;;10320895;28;20051;-86
2021/06/26 08:05:28;;;;;;;9.77;4.70;;;;;;;;;;10321778;28;20054;-85
2021/06/26 08:10:30;;;;;;;9.70;5.18;;;;;;;;;;10319937;28;20078;-85
2021/06/26 08:15:36;;;;;;;10.00;5.00;;;;;;;;;;10323116;28;20574;-86
2021/06/26 08:20:38;;;;;;;7.20;4.43;;;;;;;;;;10326345;28;20093;-84
2021/06/26 08:25:40;;;;;;;7.47;4.82;;;;;;;;;;10314459;28;20077;-83
2021/06/26 08:30:42;;;;;;;7.78;4.20;;;;;;;;;;10316876;28;20074;-85
2021/06/26 08:35:44;;;;;;;8.15;4.40;;;;;;;;;;10306065;28;20070;-80
2021/06/26 08:40:48;;;;;;;5.93;4.30;;;;;;;;;;10327199;28;20081;-80
2021/06/26 08:45:50;;;;;;;9.45;4.30;;;;;;;;;;10324629;28;20523;-81
2021/06/26 08:50:52;;;;;;;5.78;4.10;;;;;;;;;;10325001;28;20050;-82
2021/06/26 08:55:54;;;;;;;6.28;3.95;;;;;;;;;;10315376;28;20129;-82
2021/06/26 09:00:56;;;;;;;5.75;4.22;;;;;;;;;;10316427;28;20054;-82
2021/06/26 09:06:04;;;;;;;5.85;4.13;;;;;;;;;;10310921;28;20057;-82
2021/06/26 09:11:05;;;;;;;6.57;4.30;;;;;;;;;;10323048;28;20050;-82
2021/06/26 09:16:07;;;;;;;6.70;4.32;;;;;;;;;;10323269;28;20096;-82
2021/06/26 09:21:24;;;;;;;5.50;3.15;;;;;;;;;;10323268;28;20050;-82
2021/06/26 09:26:27;;;;;;;5.10;3.65;;;;;;;;;;10312895;28;20097;-82
2021/06/26 09:31:28;;;;;;;7.90;4.25;;;;;;;;;;10324008;28;20047;-82
2021/06/26 09:36:32;;;;;;;7.95;3.78;;;;;;;;;;10291282;28;20085;-82
2021/06/26 09:41:36;;;;;;;6.20;3.92;;;;;;;;;;10321641;28;20053;-82
2021/06/26 09:46:47;;;;;;;7.80;3.60;;;;;;;;;;10321906;28;20078;-83
2021/06/26 09:51:55;;;;;;;8.30;3.15;;;;;;;;;;10323763;28;20050;-85
2021/06/26 09:56:57;;;;;;;7.10;3.17;;;;;;;;;;10316526;28;20042;-83
2021/06/26 10:01:59;;;;;;;5.05;2.75;;;;;;;;;;10326773;28;20511;-87
2021/06/26 10:07:04;;;;;;;4.57;2.78;;;;;;;;;;10327405;28;20767;-87
2021/06/26 10:12:06;;;;;;;4.57;2.85;;;;;;;;;;10325794;28;20082;-87
2021/06/26 10:17:08;;;;;;;6.15;3.03;;;;;;;;;;10287154;28;20054;-87
2021/06/26 10:22:09;;;;;;;8.30;3.10;;;;;;;;;;10287618;28;20086;-88
2021/06/26 10:27:21;;;;;;;4.20;3.00;;;;;;;;;;10295628;28;20063;-87
2021/06/26 10:32:23;;;;;;;5.97;3.42;;;;;;;;;;10329560;28;20051;-87
2021/06/26 10:37:25;;;;;;;4.93;3.25;;;;;;;;;;10332831;28;20511;-87
2021/06/26 10:42:31;;;;;;;6.93;3.28;;;;;;;;;;10325946;28;20046;-87
2021/06/26 10:47:34;;;;;;;5.25;2.92;;;;;;;;;;10330598;28;20050;-86
2021/06/26 10:52:46;;;;;;;5.95;3.25;;;;;;;;;;10326947;28;20077;-85
2021/06/26 10:57:47;;;;;;;5.50;3.15;;;;;;;;;;10326956;28;20507;-85
2021/06/26 11:02:49;;;;;;;4.68;2.80;;;;;;;;;;10334793;28;20078;-85
2021/06/26 11:07:51;;;;;;;5.25;3.03;;;;;;;;;;10334697;28;20093;-85
2021/06/26 11:12:56;;;;;;;5.50;3.30;;;;;;;;;;10334066;28;20054;-86
2021/06/26 11:17:58;;;;;;;6.10;3.38;;;;;;;;;;10331865;28;20433;-88
2021/06/26 11:23:01;;;;;;;6.43;3.13;;;;;;;;;;10333752;28;20080;-87
2021/06/26 11:28:03;;;;;;;7.10;3.33;;;;;;;;;;10330937;28;20078;-88
2021/06/26 11:33:05;;;;;;;4.82;2.88;;;;;;;;;;10332572;28;20559;-87
2021/06/26 11:38:17;;;;;;;6.45;3.10;;;;;;;;;;10332520;28;20555;-87
2021/06/26 11:43:19;;;;;;;23.35;3.95;;;;;;;;;;10331612;28;20050;-88
2021/06/26 11:48:21;;;;;;;4.25;3.00;;;;;;;;;;10330634;28;20093;-88
2021/06/26 11:53:26;;;;;;;4.35;3.03;;;;;;;;;;10331122;28;20082;-88
2021/06/26 11:58:37;;;;;;;6.25;3.08;;;;;;;;;;10331096;28;20077;-89
2021/06/26 12:03:38;;;;;;;5.18;3.10;;;;;;;;;;10330565;28;20054;-88
2021/06/26 12:08:41;;;;;;;7.85;2.90;;;;;;;;;;10329364;28;20074;-89
2021/06/26 12:13:44;;;;;;;6.13;3.47;;;;;;;;;;10330773;28;20074;-88
2021/06/26 12:18:50;;;;;;;5.50;3.00;;;;;;;;;;10329879;28;20472;-88
2021/06/26 12:23:52;;;;;;;4.28;2.92;;;;;;;;;;10330365;28;20101;-89
2021/06/26 12:28:54;;;;;;;6.38;2.95;;;;;;;;;;10330404;28;20143;-88
2021/06/26 12:34:05;;;;;;;5.10;3.08;;;;;;;;;;10324387;28;20137;-88
2021/06/26 12:39:07;;;;;;;5.00;2.80;;;;;;;;;;10294123;28;20089;-88
2021/06/26 12:44:18;;;;;;;6.30;2.88;;;;;;;;;;10289575;28;20448;-89
2021/06/26 12:49:21;;;;;;;4.65;2.83;;;;;;;;;;10314422;28;20055;-89
2021/06/26 12:54:22;;;;;;;5.57;2.97;;;;;;;;;;10328395;28;20177;-88
2021/06/26 12:59:32;;;;;;;6.25;3.00;;;;;;;;;;10331182;28;20082;-89
2021/06/26 13:04:37;;;;;;;5.90;2.90;;;;;;;;;;10294872;28;20055;-85
2021/06/26 13:09:39;;;;;;;5.68;2.80;;;;;;;;;;10297559;28;20574;-81
2021/06/26 13:14:42;;;;;;;4.90;3.08;;;;;;;;;;10324553;28;20082;-81
2021/06/26 13:19:43;;;;;;;4.80;2.80;;;;;;;;;;10325668;28;20473;-81
2021/06/26 13:25:06;;;;;;;6.25;2.97;;;;;;;;;;10325567;28;20480;-81
2021/06/26 13:30:08;;;;;;;7.07;3.00;;;;;;;;;;10325561;28;20201;-81
2021/06/26 13:35:10;;;;;;;6.97;3.00;;;;;;;;;;10324627;28;20120;-81
2021/06/26 13:40:11;;;;;;;6.55;3.30;;;;;;;;;;10325428;28;20093;-81
2021/06/26 13:45:30;;;;;;;5.93;3.20;;;;;;;;;;10324719;28;20449;-81
2021/06/26 13:50:33;;;;;;;4.25;3.13;;;;;;;;;;10322368;28;20133;-81
2021/06/26 13:55:35;;;;;;;5.82;3.35;;;;;;;;;;10324795;28;20050;-81
2021/06/26 14:00:38;;;;;;;4.18;2.90;;;;;;;;;;10324794;28;20085;-81
2021/06/26 14:05:40;;;;;;;4.40;3.05;;;;;;;;;;10291458;28;20051;-81
2021/06/26 14:10:42;;;;;;;4.88;2.78;;;;;;;;;;10284332;28;20437;-81
2021/06/26 14:15:43;;;;;;;4.95;2.97;;;;;;;;;;10296178;28;20085;-81
2021/06/26 14:20:45;;;;;;;4.82;2.90;;;;;;;;;;10323738;28;20054;-81
2021/06/26 14:25:47;;;;;;;6.28;3.00;;;;;;;;;;10324267;28;20130;-81
2021/06/26 14:30:48;;;;;;;7.22;2.97;;;;;;;;;;10324305;28;20082;-81
2021/06/26 14:35:50;;;;;;;4.25;2.80;;;;;;;;;;10329767;28;20066;-81
2021/06/26 14:40:51;;;;;;;5.80;2.88;;;;;;;;;;10331575;28;20086;-81
2021/06/26 14:45:53;;;;;;;4.43;3.10;;;;;;;;;;10317130;28;20076;-81
2021/06/26 14:50:55;;;;;;;4.72;2.85;;;;;;;;;;10329831;28;20463;-81
2021/06/26 14:55:56;;;;;;;6.30;2.80;;;;;;;;;;10331642;28;20090;-81
2021/06/26 15:00:58;;;;;;;4.88;3.00;;;;;;;;;;10331855;28;20073;-81
2021/06/26 15:06:00;;;;;;;4.22;2.95;;;;;;;;;;10295731;28;20082;-81
2021/06/26 15:11:01;;;;;;;6.25;3.00;;;;;;;;;;10290863;28;20129;-79
2021/06/26 15:16:03;;;;;;;5.55;2.80;;;;;;;;;;10290065;28;20138;-82
2021/06/26 15:21:05;;;;;;;4.28;2.95;;;;;;;;;;10302027;28;20519;-79
2021/06/26 15:26:06;;;;;;;4.88;2.80;;;;;;;;;;10330259;28;20089;-79
2021/06/26 15:31:08;;;;;;;4.07;2.90;;;;;;;;;;10328009;28;20548;-79
2021/06/26 15:36:10;;;;;;;4.68;3.03;;;;;;;;;;10329925;28;20054;-80
2021/06/26 15:41:11;;;;;;;5.15;2.75;;;;;;;;;;10329977;28;20062;-79
2021/06/26 15:46:13;;;;;;;4.90;2.90;;;;;;;;;;10330101;28;20492;-78
2021/06/26 15:51:15;;;;;;;4.88;3.08;;;;;;;;;;10329579;28;20042;-79
2021/06/26 15:56:17;;;;;;;5.28;3.20;;;;;;;;;;10329038;28;20077;-79
2021/06/26 16:01:19;;;;;;;4.57;2.90;;;;;;;;;;10329067;28;20096;-79
2021/06/26 16:06:20;;;;;;;7.97;3.20;;;;;;;;;;10290462;28;20090;-79
2021/06/26 16:11:22;;;;;;;5.43;2.97;;;;;;;;;;10299385;28;20085;-79
2021/06/26 16:16:23;;;;;;;4.60;3.10;;;;;;;;;;10327260;28;20085;-79
2021/06/26 16:21:25;;;;;;;4.30;2.95;;;;;;;;;;10325230;28;20050;-79
2021/06/26 16:26:27;;;;;;;5.25;2.80;;;;;;;;;;10289060;28;20058;-79
2021/06/26 16:31:28;;;;;;;6.43;2.90;;;;;;;;;;10292283;28;20102;-80
2021/06/26 16:36:32;;;;;;;4.85;2.75;;;;;;;;;;10325502;28;20519;-79
2021/06/26 16:41:34;;;;;;;4.07;2.80;;;;;;;;;;10289036;28;20054;-79
2021/06/26 16:46:36;;;;;;;4.30;2.80;;;;;;;;;;10306147;28;20054;-79
2021/06/26 16:51:37;;;;;;;5.28;2.80;;;;;;;;;;10323824;28;20089;-80
2021/06/26 16:56:39;;;;;;;5.60;2.90;;;;;;;;;;10319003;28;20070;-80
2021/06/26 17:01:40;;;;;;;5.05;2.70;;;;;;;;;;10295968;28;20090;-80
2021/06/26 17:06:42;;;;;;;5.32;2.85;;;;;;;;;;10283288;28;20420;-80
2021/06/26 17:11:44;;;;;;;4.82;2.60;;;;;;;;;;10317789;28;20142;-80
2021/06/26 17:16:46;;;;;;;4.03;3.00;;;;;;;;;;10315152;28;20073;-79
2021/06/26 17:21:47;;;;;;;5.88;3.00;;;;;;;;;;10325158;28;20496;-80
2021/06/26 17:26:49;;;;;;;4.63;2.70;;;;;;;;;;10323973;28;20081;-80
2021/06/26 17:31:50;;;;;;;7.85;3.00;;;;;;;;;;10323297;28;20089;-79
2021/06/26 17:36:52;;;;;;;3.80;2.72;;;;;;;;;;10324286;28;20109;-80
2021/06/26 17:41:54;;;;;;;5.55;2.85;;;;;;;;;;10323245;28;20089;-80
2021/06/26 17:46:55;;;;;;;3.67;2.83;;;;;;;;;;10323761;28;20097;-79
2021/06/26 17:51:57;;;;;;;6.03;2.80;;;;;;;;;;10321517;28;20047;-79
2021/06/26 17:56:58;;;;;;;3.75;2.70;;;;;;;;;;10323501;28;20078;-80
2021/06/26 18:02:00;;;;;;;3.85;2.60;;;;;;;;;;10319601;28;20158;-79
2021/06/26 18:07:02;;;;;;;4.38;3.30;;;;;;;;;;10282625;28;20059;-79
2021/06/26 18:12:26;;;;;;;7.70;4.75;;;;;;;;;;10289677;28;20053;-79
2021/06/26 18:17:27;;;;;;;6.57;3.58;;;;;;;;;;10291324;28;20437;-80
2021/06/26 18:22:29;;;;;;;7.57;3.33;;;;;;;;;;10291437;28;20082;-79
2021/06/26 18:27:31;;;;;;;6.90;3.25;;;;;;;;;;10306995;28;20092;-80
2021/06/26 18:32:38;;;;;;;7.25;3.75;;;;;;;;;;10330723;28;20133;-79
2021/06/26 18:37:39;;;;;;;6.82;3.60;;;;;;;;;;10332149;28;20046;-79
2021/06/26 18:42:41;;;;;;;5.15;3.58;;;;;;;;;;10331918;28;20059;-79
2021/06/26 18:47:44;;;;;;;5.57;3.53;;;;;;;;;;10331885;28;20062;-79
2021/06/26 18:52:46;;;;;;;4.70;3.20;;;;;;;;;;10331267;28;20088;-79
2021/06/26 18:57:48;;;;;;;4.70;3.13;;;;;;;;;;10330776;28;20571;-79
2021/06/26 19:02:49;;;;;;;6.78;3.50;;;;;;;;;;10330638;28;20129;-79
2021/06/26 19:07:51;;;;;;;8.23;3.53;;;;;;;;;;10330927;28;20078;-79
2021/06/26 19:12:53;;;;;;;5.22;3.25;;;;;;;;;;10330891;28;20499;-79
2021/06/26 19:17:54;;;;;;;6.30;3.72;;;;;;;;;;10330973;28;20050;-79
2021/06/26 19:22:56;;;;;;;7.22;3.72;;;;;;;;;;10328854;28;20050;-78
2021/06/26 19:27:58;;;;;;;6.30;3.72;;;;;;;;;;10330641;28;20094;-79
2021/06/26 19:32:59;;;;;;;7.30;3.60;;;;;;;;;;10329506;28;20073;-79
2021/06/26 19:38:01;;;;;;;6.40;3.90;;;;;;;;;;10330261;28;20070;-79
2021/06/26 19:43:03;;;;;;;5.93;4.40;;;;;;;;;;10328893;28;20136;-79
2021/06/26 19:48:05;;;;;;;7.40;4.10;;;;;;;;;;10328954;28;20113;-79
2021/06/26 19:53:06;;;;;;;7.22;4.00;;;;;;;;;;10329112;28;20084;-79
2021/06/26 19:58:08;;;;;;;6.32;4.00;;;;;;;;;;10329078;28;20078;-79
2021/06/26 20:03:09;;;;;;;6.80;4.15;;;;;;;;;;10328306;28;20496;-79
2021/06/26 20:08:11;;;;;;;7.10;4.40;;;;;;;;;;10329218;28;20101;-79
2021/06/26 20:13:13;;;;;;;7.93;4.68;;;;;;;;;;10327625;28;20086;-80
2021/06/26 20:18:14;;;;;;;7.78;4.53;;;;;;;;;;10328316;28;20054;-79
2021/06/26 20:23:16;;;;;;;4.82;3.95;;;;;;;;;;10327439;28;20094;-79
2021/06/26 20:28:18;;;;;;;8.82;4.35;;;;;;;;;;10327459;28;20100;-79
2021/06/26 20:33:19;;;;;;;8.52;5.00;;;;;;;;;;10326860;28;20112;-79
2021/06/26 20:38:21;;;;;;;6.28;4.90;;;;;;;;;;10327368;28;20070;-79
2021/06/26 20:43:22;;;;;;;8.35;5.50;;;;;;;;;;10327699;28;20050;-79
2021/06/26 20:48:24;;;;;;;6.28;4.72;;;;;;;;;;10331139;28;20089;-88
2021/06/26 20:53:26;;;;;;;6.10;4.60;;;;;;;;;;10329717;28;20082;-88
2021/06/26 20:58:27;;;;;;;10.00;5.20;;;;;;;;;;10333279;28;20050;-89
2021/06/26 21:03:29;;;;;;;6.93;5.40;;;;;;;;;;10316323;28;20109;-89
2021/06/26 21:08:31;;;;;;;8.63;4.72;;;;;;;;;;10306634;28;20051;-89
2021/06/26 21:13:32;;;;;;;5.97;5.05;;;;;;;;;;10328167;28;20103;-89
2021/06/26 21:18:34;;;;;;;8.00;5.30;;;;;;;;;;10327017;28;20112;-89
2021/06/26 21:23:35;;;;;;;8.35;4.97;;;;;;;;;;10328421;28;20066;-88
2021/06/26 21:28:38;;;;;;;7.40;5.22;;;;;;;;;;10327291;28;20147;-89
2021/06/26 21:33:40;;;;;;;6.88;4.93;;;;;;;;;;10323655;28;20050;-81
2021/06/26 21:38:42;;;;;;;8.88;5.10;;;;;;;;;;10298609;28;20101;-80
2021/06/26 21:43:43;;;;;;;6.65;4.97;;;;;;;;;;10295403;28;20093;-80
2021/06/26 21:48:45;;;;;;;9.65;5.43;;;;;;;;;;10317145;28;20174;-82
2021/06/26 21:53:47;;;;;;;6.95;5.20;;;;;;;;;;10349382;28;20149;-81
2021/06/26 21:58:49;;;;;;;10.77;6.00;;;;;;;;;;10362932;28;20127;-81
2021/06/26 22:03:51;;;;;;;7.50;4.85;;;;;;;;;;10345128;28;20084;-80
2021/06/26 22:08:53;;;;;;;6.75;5.68;;;;;;;;;;10361884;28;20140;-80
2021/06/26 22:13:55;;;;;;;8.75;5.70;;;;;;;;;;10363160;28;20141;-81
2021/06/26 22:18:57;;;;;;;12.32;6.15;;;;;;;;;;10362417;28;20104;-79
2021/06/26 22:23:59;;;;;;;7.75;5.55;;;;;;;;;;10360558;28;20108;-80
2021/06/26 22:29:01;;;;;;;6.75;5.93;;;;;;;;;;10357645;28;20065;-80
2021/06/26 22:34:03;;;;;;;7.57;6.20;;;;;;;;;;10363719;28;20100;-80
2021/06/26 22:39:05;;;;;;;8.55;5.72;;;;;;;;;;10361385;28;20125;-80
2021/06/26 22:44:06;;;;;;;11.05;5.90;;;;;;;;;;10362041;28;20470;-80
2021/06/26 22:49:08;;;;;;;8.25;5.80;;;;;;;;;;10321791;28;20504;-80
2021/06/26 22:54:10;;;;;;;8.80;5.88;;;;;;;;;;10350624;28;20062;-80
2021/06/26 22:59:11;;;;;;;7.97;5.97;;;;;;;;;;10370076;28;20069;-80
2021/06/26 23:04:13;;;;;;;7.15;5.85;;;;;;;;;;10349939;28;20984;-80
2021/06/26 23:09:14;;;;;;;10.23;6.80;;;;;;;;;;10368957;28;20080;-80
2021/06/26 23:14:16;;;;;;;7.72;6.40;;;;;;;;;;10370069;28;20085;-80
2021/06/26 23:19:22;;;;;;;8.70;6.55;;;;;;;;;;10369579;28;20081;-80
2021/06/26 23:24:23;;;;;;;10.85;5.90;;;;;;;;;;10367397;28;20050;-80
2021/06/26 23:29:25;;;;;;;8.82;6.82;;;;;;;;;;10369287;28;20100;-80
2021/06/26 23:34:27;;;;;;;8.38;6.10;;;;;;;;;;10370244;28;20054;-80
2021/06/26 23:39:29;;;;;;;10.18;6.30;;;;;;;;;;10369901;28;20077;-80
2021/06/26 23:44:30;;;;;;;7.70;6.82;;;;;;;;;;10369561;28;20136;-80
2021/06/26 23:49:32;;;;;;;13.25;7.70;;;;;;;;;;10368684;28;20129;-80
2021/06/26 23:54:33;;;;;;;15.95;8.63;;;;;;;;;;10367999;28;20484;-80
2021/06/26 23:59:35;;;;;;;7.75;6.82;;;;;;;;;;10368662;28;20096;-80
